sensor_id;sensor_type;location;lat;lon;timestamp;pressure;altitude;pressure_sealevel;temperature;humidity
37068;BME280;22982;42.848;25.468;2022-09-29T00:01:01;95300.38;;;12.04;100.00
37068;BME280;22982;42.848;25.468;2022-09-29T00:06:10;95307.47;;;11.81;100.00
37068;BME280;22982;42.848;25.468;2022-09-29T00:11:16;95319.41;;;11.96;100.00
37068;BME280;22982;42.848;25.468;2022-09-29T00:16:20;95287.78;;;11.75;100.00
37068;BME280;22982;42.848;25.468;2022-09-29T00:21:23;95296.88;;;11.71;100.00
37068;BME280;22982;42.848;25.468;2022-09-29T00:26:27;95307.47;;;11.81;100.00
37068;BME280;22982;42.848;25.468;2022-09-29T00:31:31;95302.72;;;11.75;100.00
37068;BME280;22982;42.848;25.468;2022-09-29T00:36:34;95306.69;;;11.69;100.00
37068;BME280;22982;42.848;25.468;2022-09-29T00:41:39;95308.56;;;11.78;100.00
37068;BME280;22982;42.848;25.468;2022-09-29T00:46:49;95305.47;;;11.73;100.00
37068;BME280;22982;42.848;25.468;2022-09-29T00:51:57;95307.63;;;11.68;100.00
37068;BME280;22982;42.848;25.468;2022-09-29T00:57:01;95309.91;;;11.50;100.00
37068;BME280;22982;42.848;25.468;2022-09-29T01:02:04;95280.59;;;11.11;100.00
37068;BME280;22982;42.848;25.468;2022-09-29T01:07:08;95307.56;;;11.36;100.00
37068;BME280;22982;42.848;25.468;2022-09-29T01:12:11;95284.66;;;11.26;100.00
37068;BME280;22982;42.848;25.468;2022-09-29T01:17:13;95288.59;;;11.21;100.00
37068;BME280;22982;42.848;25.468;2022-09-29T01:38:30;95325.94;;;11.24;100.00
37068;BME280;22982;42.848;25.468;2022-09-29T01:48:49;95295.75;;;11.30;100.00
37068;BME280;22982;42.848;25.468;2022-09-29T01:53:56;95308.63;;;11.33;100.00
37068;BME280;22982;42.848;25.468;2022-09-29T01:59:13;95314.69;;;11.45;100.00
37068;BME280;22982;42.848;25.468;2022-09-29T02:04:43;95323.06;;;11.39;100.00
37068;BME280;22982;42.848;25.468;2022-09-29T02:09:52;95321.84;;;11.43;100.00
37068;BME280;22982;42.848;25.468;2022-09-29T02:15:01;95330.34;;;11.24;100.00
37068;BME280;22982;42.848;25.468;2022-09-29T02:20:04;95333.66;;;11.15;100.00
37068;BME280;22982;42.848;25.468;2022-09-29T02:25:08;95346.56;;;11.06;100.00
37068;BME280;22982;42.848;25.468;2022-09-29T02:30:12;95339.88;;;11.02;100.00
37068;BME280;22982;42.848;25.468;2022-09-29T02:35:14;95318.06;;;10.90;100.00
37068;BME280;22982;42.848;25.468;2022-09-29T02:40:57;95334.38;;;10.83;100.00
37068;BME280;22982;42.848;25.468;2022-09-29T02:46:25;95352.34;;;10.76;100.00
37068;BME280;22982;42.848;25.468;2022-09-29T02:51:41;95349.69;;;10.53;100.00
37068;BME280;22982;42.848;25.468;2022-09-29T02:56:57;95347.81;;;10.67;100.00
37068;BME280;22982;42.848;25.468;2022-09-29T03:02:06;95348.38;;;10.48;100.00
37068;BME280;22982;42.848;25.468;2022-09-29T03:07:08;95329.78;;;10.27;100.00
37068;BME280;22982;42.848;25.468;2022-09-29T03:12:10;95341.31;;;10.24;100.00
37068;BME280;22982;42.848;25.468;2022-09-29T03:17:13;95360.59;;;10.36;100.00
37068;BME280;22982;42.848;25.468;2022-09-29T03:22:15;95338.22;;;10.19;100.00
37068;BME280;22982;42.848;25.468;2022-09-29T03:27:37;95368.91;;;10.17;100.00
37068;BME280;22982;42.848;25.468;2022-09-29T03:32:42;95343.63;;;9.81;100.00
37068;BME280;22982;42.848;25.468;2022-09-29T03:37:49;95367.59;;;10.11;100.00
37068;BME280;22982;42.848;25.468;2022-09-29T03:57:37;95350.19;;;9.86;100.00
37068;BME280;22982;42.848;25.468;2022-09-29T04:02:40;95365.59;;;9.91;100.00
37068;BME280;22982;42.848;25.468;2022-09-29T04:07:42;95349.88;;;9.91;100.00
37068;BME280;22982;42.848;25.468;2022-09-29T04:12:45;95380.94;;;10.08;100.00
37068;BME280;22982;42.848;25.468;2022-09-29T04:17:47;95361.91;;;10.18;100.00
37068;BME280;22982;42.848;25.468;2022-09-29T04:22:49;95377.13;;;9.88;100.00
37068;BME280;22982;42.848;25.468;2022-09-29T04:27:52;95377.09;;;10.01;100.00
37068;BME280;22982;42.848;25.468;2022-09-29T04:32:54;95373.94;;;9.96;100.00
37068;BME280;22982;42.848;25.468;2022-09-29T04:37:56;95397.50;;;10.20;100.00
37068;BME280;22982;42.848;25.468;2022-09-29T04:43:00;95399.56;;;10.28;100.00
37068;BME280;22982;42.848;25.468;2022-09-29T04:48:02;95377.03;;;10.38;100.00
37068;BME280;22982;42.848;25.468;2022-09-29T04:53:05;95397.31;;;10.83;100.00
37068;BME280;22982;42.848;25.468;2022-09-29T04:58:08;95393.59;;;10.85;100.00
37068;BME280;22982;42.848;25.468;2022-09-29T05:03:10;95389.34;;;10.96;100.00
37068;BME280;22982;42.848;25.468;2022-09-29T05:08:13;95408.59;;;11.19;100.00
37068;BME280;22982;42.848;25.468;2022-09-29T05:13:15;95392.25;;;11.26;100.00
37068;BME280;22982;42.848;25.468;2022-09-29T05:18:17;95396.78;;;11.47;100.00
37068;BME280;22982;42.848;25.468;2022-09-29T05:23:19;95405.72;;;11.56;100.00
37068;BME280;22982;42.848;25.468;2022-09-29T05:28:22;95397.63;;;11.59;100.00
37068;BME280;22982;42.848;25.468;2022-09-29T05:33:24;95407.75;;;11.75;100.00
37068;BME280;22982;42.848;25.468;2022-09-29T05:38:26;95404.38;;;12.06;100.00
37068;BME280;22982;42.848;25.468;2022-09-29T05:43:29;95390.19;;;12.41;100.00
37068;BME280;22982;42.848;25.468;2022-09-29T05:48:31;95397.75;;;12.88;100.00
37068;BME280;22982;42.848;25.468;2022-09-29T05:53:34;95381.63;;;13.45;100.00
37068;BME280;22982;42.848;25.468;2022-09-29T05:58:37;95389.31;;;14.08;100.00
37068;BME280;22982;42.848;25.468;2022-09-29T06:03:40;95366.44;;;14.57;100.00
37068;BME280;22982;42.848;25.468;2022-09-29T06:08:42;95369.91;;;17.17;97.05
37068;BME280;22982;42.848;25.468;2022-09-29T06:13:46;95345.53;;;24.64;56.93
37068;BME280;22982;42.848;25.468;2022-09-29T06:18:49;95327.38;;;25.67;50.58
37068;BME280;22982;42.848;25.468;2022-09-29T06:42:03;95321.03;;;32.67;33.95
37068;BME280;22982;42.848;25.468;2022-09-29T06:47:09;95311.81;;;32.46;34.18
37068;BME280;22982;42.848;25.468;2022-09-29T06:52:11;95302.22;;;33.47;33.20
37068;BME280;22982;42.848;25.468;2022-09-29T06:57:21;95300.84;;;33.45;32.40
37068;BME280;22982;42.848;25.468;2022-09-29T07:02:24;95299.53;;;32.60;34.21
37068;BME280;22982;42.848;25.468;2022-09-29T07:07:26;95275.59;;;33.49;33.06
37068;BME280;22982;42.848;25.468;2022-09-29T07:12:28;95308.25;;;33.22;32.88
37068;BME280;22982;42.848;25.468;2022-09-29T07:17:31;95314.41;;;32.14;34.40
37068;BME280;22982;42.848;25.468;2022-09-29T07:22:33;95297.72;;;31.83;36.50
37068;BME280;22982;42.848;25.468;2022-09-29T07:27:35;95297.28;;;31.35;36.88
37068;BME280;22982;42.848;25.468;2022-09-29T07:32:37;95288.47;;;30.77;36.25
37068;BME280;22982;42.848;25.468;2022-09-29T07:37:39;95290.81;;;31.19;37.29
37068;BME280;22982;42.848;25.468;2022-09-29T07:42:42;95282.75;;;31.07;37.82
37068;BME280;22982;42.848;25.468;2022-09-29T07:47:44;95294.72;;;31.45;38.79
37068;BME280;22982;42.848;25.468;2022-09-29T07:52:49;95283.56;;;31.25;37.79
37068;BME280;22982;42.848;25.468;2022-09-29T07:57:52;95290.16;;;30.66;39.00
37068;BME280;22982;42.848;25.468;2022-09-29T08:02:54;95283.41;;;30.98;38.88
37068;BME280;22982;42.848;25.468;2022-09-29T08:07:57;95296.97;;;30.86;37.88
37068;BME280;22982;42.848;25.468;2022-09-29T08:13:00;95293.88;;;30.48;39.44
37068;BME280;22982;42.848;25.468;2022-09-29T08:18:02;95309.00;;;31.07;36.77
37068;BME280;22982;42.848;25.468;2022-09-29T08:23:04;95288.03;;;31.48;35.75
37068;BME280;22982;42.848;25.468;2022-09-29T08:28:07;95299.81;;;31.98;32.29
37068;BME280;22982;42.848;25.468;2022-09-29T08:33:13;95308.03;;;31.64;30.75
37068;BME280;22982;42.848;25.468;2022-09-29T08:38:15;95305.50;;;31.57;29.22
37068;BME280;22982;42.848;25.468;2022-09-29T08:43:37;95281.94;;;29.80;30.28
37068;BME280;22982;42.848;25.468;2022-09-29T08:48:42;95291.66;;;30.05;32.55
37068;BME280;22982;42.848;25.468;2022-09-29T08:54:05;95313.63;;;29.85;32.52
37068;BME280;22982;42.848;25.468;2022-09-29T08:59:35;95311.81;;;30.66;30.28
37068;BME280;22982;42.848;25.468;2022-09-29T09:05:07;95334.16;;;32.09;29.19
37068;BME280;22982;42.848;25.468;2022-09-29T09:10:20;95334.09;;;29.92;30.79
37068;BME280;22982;42.848;25.468;2022-09-29T09:15:36;95328.34;;;28.99;31.57
37068;BME280;22982;42.848;25.468;2022-09-29T09:25:56;95341.16;;;29.04;32.42
37068;BME280;22982;42.848;25.468;2022-09-29T09:36:14;95337.66;;;31.20;29.79
37068;BME280;22982;42.848;25.468;2022-09-29T09:41:35;95329.31;;;32.11;29.04
37068;BME280;22982;42.848;25.468;2022-09-29T09:46:46;95337.41;;;31.38;29.63
37068;BME280;22982;42.848;25.468;2022-09-29T10:02:57;95319.63;;;29.51;31.06
37068;BME280;22982;42.848;25.468;2022-09-29T10:08:04;95339.97;;;29.00;31.29
37068;BME280;22982;42.848;25.468;2022-09-29T10:13:14;95322.44;;;29.92;30.92
37068;BME280;22982;42.848;25.468;2022-09-29T10:18:22;95318.69;;;29.93;30.32
37068;BME280;22982;42.848;25.468;2022-09-29T10:23:34;95321.69;;;30.20;29.39
37068;BME280;22982;42.848;25.468;2022-09-29T10:28:50;95305.25;;;30.10;30.24
37068;BME280;22982;42.848;25.468;2022-09-29T10:33:56;95342.19;;;29.45;31.07
37068;BME280;22982;42.848;25.468;2022-09-29T10:38:59;95354.56;;;29.11;31.15
37068;BME280;22982;42.848;25.468;2022-09-29T10:44:19;95324.09;;;29.34;31.41
37068;BME280;22982;42.848;25.468;2022-09-29T10:49:24;95328.94;;;28.41;32.00
37068;BME280;22982;42.848;25.468;2022-09-29T10:54:35;95324.00;;;28.98;30.99
37068;BME280;22982;42.848;25.468;2022-09-29T10:59:45;95327.91;;;28.23;31.49
37068;BME280;22982;42.848;25.468;2022-09-29T11:04:50;95343.38;;;26.97;33.70
37068;BME280;22982;42.848;25.468;2022-09-29T11:09:54;95341.97;;;26.56;35.29
37068;BME280;22982;42.848;25.468;2022-09-29T11:14:57;95325.91;;;26.36;35.47
37068;BME280;22982;42.848;25.468;2022-09-29T11:20:02;95340.31;;;26.62;35.30
37068;BME280;22982;42.848;25.468;2022-09-29T11:30:45;95318.91;;;27.05;34.61
37068;BME280;22982;42.848;25.468;2022-09-29T11:35:57;95324.19;;;26.62;35.05
37068;BME280;22982;42.848;25.468;2022-09-29T11:41:39;95325.72;;;27.33;34.46
37068;BME280;22982;42.848;25.468;2022-09-29T11:47:00;95311.88;;;27.55;34.00
37068;BME280;22982;42.848;25.468;2022-09-29T11:57:35;95321.00;;;27.03;36.35
37068;BME280;22982;42.848;25.468;2022-09-29T12:13:31;95323.72;;;27.28;38.20
37068;BME280;22982;42.848;25.468;2022-09-29T12:23:38;95351.56;;;27.09;38.46
37068;BME280;22982;42.848;25.468;2022-09-29T12:28:47;95316.06;;;26.93;40.50
37068;BME280;22982;42.848;25.468;2022-09-29T12:33:58;95326.66;;;26.63;42.55
37068;BME280;22982;42.848;25.468;2022-09-29T12:39:04;95348.16;;;26.57;42.09
37068;BME280;22982;42.848;25.468;2022-09-29T12:44:17;95347.09;;;26.12;44.45
37068;BME280;22982;42.848;25.468;2022-09-29T12:49:38;95347.97;;;26.00;45.61
37068;BME280;22982;42.848;25.468;2022-09-29T12:54:53;95346.72;;;25.89;45.85
37068;BME280;22982;42.848;25.468;2022-09-29T13:00:08;95334.03;;;25.31;50.48
37068;BME280;22982;42.848;25.468;2022-09-29T13:32:01;95347.44;;;24.97;59.88
37068;BME280;22982;42.848;25.468;2022-09-29T13:37:14;95338.38;;;24.23;60.37
37068;BME280;22982;42.848;25.468;2022-09-29T13:47:44;95345.03;;;23.99;61.16
37068;BME280;22982;42.848;25.468;2022-09-29T13:52:47;95341.50;;;23.85;62.46
37068;BME280;22982;42.848;25.468;2022-09-29T13:57:50;95367.53;;;24.05;67.16
37068;BME280;22982;42.848;25.468;2022-09-29T14:03:02;95351.56;;;23.55;69.88
37068;BME280;22982;42.848;25.468;2022-09-29T14:08:14;95360.75;;;23.74;68.93
37068;BME280;22982;42.848;25.468;2022-09-29T14:18:35;95339.69;;;23.29;68.32
37068;BME280;22982;42.848;25.468;2022-09-29T14:28:51;95357.50;;;23.22;70.46
37068;BME280;22982;42.848;25.468;2022-09-29T14:33:54;95363.88;;;23.00;73.78
37068;BME280;22982;42.848;25.468;2022-09-29T14:38:57;95374.38;;;23.23;72.88
37068;BME280;22982;42.848;25.468;2022-09-29T14:44:35;95361.09;;;23.08;75.47
37068;BME280;22982;42.848;25.468;2022-09-29T14:50:16;95352.88;;;22.88;77.49
37068;BME280;22982;42.848;25.468;2022-09-29T14:55:53;95369.44;;;22.77;73.21
37068;BME280;22982;42.848;25.468;2022-09-29T15:06:11;95385.53;;;22.47;69.51
37068;BME280;22982;42.848;25.468;2022-09-29T15:11:41;95372.78;;;22.12;72.30
37068;BME280;22982;42.848;25.468;2022-09-29T15:22:39;95394.78;;;21.70;77.96
37068;BME280;22982;42.848;25.468;2022-09-29T15:27:49;95406.47;;;20.61;85.26
37068;BME280;22982;42.848;25.468;2022-09-29T15:32:53;95375.47;;;20.37;84.51
37068;BME280;22982;42.848;25.468;2022-09-29T15:38:14;95382.59;;;20.14;85.09
37068;BME280;22982;42.848;25.468;2022-09-29T15:43:22;95392.34;;;19.82;87.40
37068;BME280;22982;42.848;25.468;2022-09-29T15:48:27;95431.28;;;19.66;89.85
37068;BME280;22982;42.848;25.468;2022-09-29T15:53:30;95422.69;;;19.23;92.01
37068;BME280;22982;42.848;25.468;2022-09-29T15:58:36;95412.38;;;19.04;93.77
37068;BME280;22982;42.848;25.468;2022-09-29T16:08:55;95435.03;;;18.57;96.67
37068;BME280;22982;42.848;25.468;2022-09-29T16:14:02;95456.47;;;18.55;98.96
37068;BME280;22982;42.848;25.468;2022-09-29T16:19:15;95451.78;;;18.41;98.24
37068;BME280;22982;42.848;25.468;2022-09-29T16:24:20;95471.28;;;18.32;99.53
37068;BME280;22982;42.848;25.468;2022-09-29T16:29:33;95449.22;;;17.89;96.48
37068;BME280;22982;42.848;25.468;2022-09-29T16:34:36;95477.31;;;18.00;99.11
37068;BME280;22982;42.848;25.468;2022-09-29T16:39:43;95471.59;;;17.68;99.53
37068;BME280;22982;42.848;25.468;2022-09-29T16:44:47;95467.13;;;17.42;100.00
37068;BME280;22982;42.848;25.468;2022-09-29T16:49:57;95505.69;;;17.19;100.00
37068;BME280;22982;42.848;25.468;2022-09-29T17:00:27;95523.56;;;17.17;100.00
37068;BME280;22982;42.848;25.468;2022-09-29T17:07:01;95531.34;;;17.18;98.89
37068;BME280;22982;42.848;25.468;2022-09-29T17:12:04;95483.63;;;16.82;97.68
37068;BME280;22982;42.848;25.468;2022-09-29T17:17:14;95502.06;;;16.84;99.27
37068;BME280;22982;42.848;25.468;2022-09-29T17:22:23;95530.19;;;17.03;96.87
37068;BME280;22982;42.848;25.468;2022-09-29T17:27:27;95512.31;;;16.87;100.00
37068;BME280;22982;42.848;25.468;2022-09-29T17:32:52;95521.28;;;16.76;100.00
37068;BME280;22982;42.848;25.468;2022-09-29T17:37:55;95525.88;;;16.84;100.00
37068;BME280;22982;42.848;25.468;2022-09-29T17:42:57;95555.47;;;16.70;100.00
37068;BME280;22982;42.848;25.468;2022-09-29T17:48:02;95576.44;;;16.81;100.00
37068;BME280;22982;42.848;25.468;2022-09-29T17:53:06;95552.72;;;16.61;100.00
37068;BME280;22982;42.848;25.468;2022-09-29T17:58:12;95590.41;;;16.83;97.62
37068;BME280;22982;42.848;25.468;2022-09-29T18:03:18;95599.81;;;16.95;100.00
37068;BME280;22982;42.848;25.468;2022-09-29T18:08:24;95588.59;;;16.74;100.00
37068;BME280;22982;42.848;25.468;2022-09-29T18:13:28;95610.59;;;16.74;97.92
37068;BME280;22982;42.848;25.468;2022-09-29T18:18:32;95617.44;;;16.77;95.21
37068;BME280;22982;42.848;25.468;2022-09-29T18:23:36;95636.81;;;17.05;100.00
37068;BME280;22982;42.848;25.468;2022-09-29T18:28:38;95628.34;;;17.01;98.68
37068;BME280;22982;42.848;25.468;2022-09-29T18:33:41;95628.44;;;17.10;97.95
37068;BME280;22982;42.848;25.468;2022-09-29T18:38:43;95654.94;;;17.10;100.00
37068;BME280;22982;42.848;25.468;2022-09-29T18:43:46;95651.28;;;16.83;100.00
37068;BME280;22982;42.848;25.468;2022-09-29T18:48:49;95635.56;;;16.72;95.87
37068;BME280;22982;42.848;25.468;2022-09-29T18:53:55;95649.66;;;17.00;98.13
37068;BME280;22982;42.848;25.468;2022-09-29T18:59:00;95621.44;;;16.53;100.00
37068;BME280;22982;42.848;25.468;2022-09-29T19:04:02;95627.88;;;16.41;99.65
37068;BME280;22982;42.848;25.468;2022-09-29T19:09:06;95668.91;;;16.64;100.00
37068;BME280;22982;42.848;25.468;2022-09-29T19:14:08;95643.16;;;16.47;100.00
37068;BME280;22982;42.848;25.468;2022-09-29T19:19:11;95639.66;;;16.56;100.00
37068;BME280;22982;42.848;25.468;2022-09-29T19:24:13;95620.00;;;16.21;100.00
37068;BME280;22982;42.848;25.468;2022-09-29T19:29:17;95646.50;;;15.82;100.00
37068;BME280;22982;42.848;25.468;2022-09-29T19:34:19;95684.63;;;15.99;100.00
37068;BME280;22982;42.848;25.468;2022-09-29T19:39:21;95691.41;;;15.63;100.00
37068;BME280;22982;42.848;25.468;2022-09-29T19:44:25;95683.44;;;15.34;100.00
37068;BME280;22982;42.848;25.468;2022-09-29T19:49:27;95672.97;;;15.12;100.00
37068;BME280;22982;42.848;25.468;2022-09-29T19:54:31;95699.91;;;15.06;100.00
37068;BME280;22982;42.848;25.468;2022-09-29T19:59:36;95677.63;;;14.89;100.00
37068;BME280;22982;42.848;25.468;2022-09-29T20:04:41;95693.44;;;14.80;100.00
37068;BME280;22982;42.848;25.468;2022-09-29T20:09:43;95704.34;;;14.65;100.00
37068;BME280;22982;42.848;25.468;2022-09-29T20:14:46;95706.75;;;14.57;100.00
37068;BME280;22982;42.848;25.468;2022-09-29T20:19:48;95704.97;;;14.58;100.00
37068;BME280;22982;42.848;25.468;2022-09-29T20:24:51;95712.13;;;14.46;100.00
37068;BME280;22982;42.848;25.468;2022-09-29T20:29:54;95693.38;;;14.49;100.00
37068;BME280;22982;42.848;25.468;2022-09-29T20:34:57;95728.09;;;14.65;100.00
37068;BME280;22982;42.848;25.468;2022-09-29T20:39:59;95717.91;;;14.61;100.00
37068;BME280;22982;42.848;25.468;2022-09-29T20:45:02;95718.47;;;14.43;100.00
37068;BME280;22982;42.848;25.468;2022-09-29T20:50:05;95752.63;;;14.45;100.00
37068;BME280;22982;42.848;25.468;2022-09-29T20:55:08;95752.94;;;14.30;100.00
37068;BME280;22982;42.848;25.468;2022-09-29T21:00:10;95746.84;;;14.51;100.00
37068;BME280;22982;42.848;25.468;2022-09-29T21:05:14;95758.38;;;14.71;100.00
37068;BME280;22982;42.848;25.468;2022-09-29T21:10:16;95758.84;;;14.76;100.00
37068;BME280;22982;42.848;25.468;2022-09-29T21:15:18;95763.34;;;14.64;100.00
37068;BME280;22982;42.848;25.468;2022-09-29T21:20:20;95760.91;;;14.72;100.00
37068;BME280;22982;42.848;25.468;2022-09-29T21:25:23;95761.25;;;14.58;100.00
37068;BME280;22982;42.848;25.468;2022-09-29T21:30:27;95753.31;;;14.58;100.00
37068;BME280;22982;42.848;25.468;2022-09-29T21:35:29;95763.97;;;14.78;100.00
37068;BME280;22982;42.848;25.468;2022-09-29T21:40:32;95764.03;;;14.66;100.00
37068;BME280;22982;42.848;25.468;2022-09-29T21:45:34;95776.78;;;14.82;100.00
37068;BME280;22982;42.848;25.468;2022-09-29T21:50:36;95753.94;;;14.71;100.00
37068;BME280;22982;42.848;25.468;2022-09-29T21:55:42;95754.50;;;14.75;100.00
37068;BME280;22982;42.848;25.468;2022-09-29T22:00:46;95758.88;;;14.86;100.00
37068;BME280;22982;42.848;25.468;2022-09-29T22:05:49;95779.00;;;14.87;100.00
37068;BME280;22982;42.848;25.468;2022-09-29T22:10:52;95757.47;;;14.82;100.00
37068;BME280;22982;42.848;25.468;2022-09-29T22:16:05;95768.88;;;14.61;100.00
37068;BME280;22982;42.848;25.468;2022-09-29T22:21:14;95770.44;;;14.64;100.00
37068;BME280;22982;42.848;25.468;2022-09-29T22:26:17;95789.56;;;14.45;100.00
37068;BME280;22982;42.848;25.468;2022-09-29T22:31:19;95794.19;;;14.31;100.00
37068;BME280;22982;42.848;25.468;2022-09-29T22:36:22;95777.97;;;14.15;100.00
37068;BME280;22982;42.848;25.468;2022-09-29T22:41:25;95795.63;;;14.03;100.00
37068;BME280;22982;42.848;25.468;2022-09-29T22:46:29;95804.13;;;14.07;100.00
37068;BME280;22982;42.848;25.468;2022-09-29T22:51:32;95792.69;;;13.85;100.00
37068;BME280;22982;42.848;25.468;2022-09-29T22:56:34;95774.03;;;13.66;100.00
37068;BME280;22982;42.848;25.468;2022-09-29T23:01:36;95812.09;;;13.84;100.00
37068;BME280;22982;42.848;25.468;2022-09-29T23:06:39;95814.06;;;13.59;100.00
37068;BME280;22982;42.848;25.468;2022-09-29T23:11:41;95825.34;;;13.50;100.00
37068;BME280;22982;42.848;25.468;2022-09-29T23:16:43;95820.06;;;13.50;100.00
37068;BME280;22982;42.848;25.468;2022-09-29T23:21:46;95829.91;;;13.37;100.00
37068;BME280;22982;42.848;25.468;2022-09-29T23:26:48;95833.34;;;13.26;100.00
37068;BME280;22982;42.848;25.468;2022-09-29T23:31:52;95827.94;;;13.05;100.00
37068;BME280;22982;42.848;25.468;2022-09-29T23:36:54;95840.97;;;12.95;100.00
37068;BME280;22982;42.848;25.468;2022-09-29T23:41:57;95846.22;;;12.95;100.00
37068;BME280;22982;42.848;25.468;2022-09-29T23:46:59;95827.91;;;12.82;100.00
37068;BME280;22982;42.848;25.468;2022-09-29T23:52:04;95829.09;;;12.78;100.00
37068;BME280;22982;42.848;25.468;2022-09-29T23:57:06;95818.75;;;12.41;100.00
